Time;durP1;ratioP1;P1;durP2;ratioP2;P2;SDS_P1;SDS_P2;PMS_P1;PMS_P2;Temp;Humidity;BMP_temperature;BMP_pressure;BME280_temperature;BME280_humidity;BME280_pressure;Samples;Min_cycle;Max_cycle;Signal;HPM_P1;HPM_P2
2021/12/02 00:00:58;;;;;;;1.20;0.90;;;6.20;85.30;;;6.25;65.03;95947.44;5035049;28;20049;-45
2021/12/02 00:03:26;;;;;;;1.10;1.00;;;6.20;85.70;;;6.30;64.16;95945.13;5032818;28;20049;-45
2021/12/02 00:05:54;;;;;;;2.43;0.97;;;6.20;85.20;;;6.37;64.08;95957.63;5032884;28;20054;-44
2021/12/02 00:08:22;;;;;;;1.37;0.97;;;6.30;85.60;;;6.37;64.09;95949.69;5032968;28;20091;-45
2021/12/02 00:10:50;;;;;;;2.33;1.00;;;6.30;84.70;;;6.30;63.90;95952.19;5033684;28;20064;-44
2021/12/02 00:13:22;;;;;;;1.77;1.00;;;6.30;84.10;;;6.34;63.70;95950.88;5033239;28;20057;-45
2021/12/02 00:16:00;;;;;;;2.60;1.10;;;6.30;84.60;;;6.37;64.21;95950.50;5032305;28;20381;-46
2021/12/02 00:21:04;;;;;;;3.43;1.00;;;6.30;84.20;;;6.40;63.23;95957.28;5033041;28;20047;-44
2021/12/02 00:23:51;;;;;;;2.10;1.13;;;6.30;82.70;;;6.40;63.77;95966.03;5032737;28;20075;-44
2021/12/02 00:26:22;;;;;;;2.87;0.80;;;6.30;83.80;;;6.37;63.58;95965.56;5032875;28;20060;-46
2021/12/02 00:28:56;;;;;;;2.83;1.07;;;6.30;83.10;;;6.37;63.39;95969.00;5032135;28;20061;-43
2021/12/02 00:31:30;;;;;;;2.17;1.00;;;6.30;83.10;;;6.33;63.50;95964.25;5033017;28;20061;-43
2021/12/02 00:34:09;;;;;;;2.65;1.50;;;6.30;82.60;;;6.31;62.80;95965.25;5032830;28;20055;-43
2021/12/02 00:36:39;;;;;;;2.70;1.00;;;6.30;82.30;;;6.34;63.25;95966.75;5032597;28;20061;-47
2021/12/02 00:39:19;;;;;;;0.60;0.60;;;6.30;82.60;;;6.37;63.11;95966.38;5032783;28;20203;-45
2021/12/02 00:41:48;;;;;;;1.87;0.93;;;6.40;82.10;;;6.41;63.13;95965.00;5033040;28;20059;-44
2021/12/02 00:44:21;;;;;;;3.47;1.20;;;6.40;82.00;;;6.44;63.47;95964.66;5032507;28;20473;-44
2021/12/02 00:46:50;;;;;;;1.87;1.23;;;6.50;82.30;;;6.45;63.55;95958.38;5032484;28;20064;-43
2021/12/02 00:49:20;;;;;;;2.53;1.30;;;6.40;82.00;;;6.45;63.44;95965.50;5033188;28;20057;-44
2021/12/02 00:51:59;;;;;;;3.33;1.07;;;6.50;82.20;;;6.49;62.73;95969.41;5032781;28;20053;-46
2021/12/02 00:54:28;;;;;;;2.83;1.37;;;6.50;81.50;;;6.50;62.98;95971.06;5029917;28;20053;-46
2021/12/02 00:56:56;;;;;;;1.67;1.00;;;6.50;82.20;;;6.54;63.04;95968.91;5028503;28;20159;-44
2021/12/02 00:59:28;;;;;;;3.20;1.10;;;6.50;82.20;;;6.59;63.29;95966.53;5029397;28;20051;-44
2021/12/02 01:01:58;;;;;;;1.93;1.07;;;6.60;82.20;;;6.60;63.57;95968.19;5028642;28;20057;-46
2021/12/02 01:04:26;;;;;;;2.93;1.07;;;6.60;82.00;;;6.63;63.19;95973.09;5029404;28;20037;-45
2021/12/02 01:06:54;;;;;;;2.43;1.10;;;6.60;82.30;;;6.58;63.39;95965.72;5029036;28;20287;-44
2021/12/02 01:09:22;;;;;;;1.90;0.93;;;6.60;82.50;;;6.61;63.79;95964.53;5029534;28;20229;-46
2021/12/02 01:11:54;;;;;;;2.43;1.10;;;6.60;82.90;;;6.60;63.65;95965.56;5028381;28;20061;-46
2021/12/02 01:14:23;;;;;;;4.17;1.03;;;6.60;83.30;;;6.55;64.06;95946.75;5026186;28;20088;-47
2021/12/02 01:16:51;;;;;;;1.93;1.47;;;6.60;83.30;;;6.54;63.84;95953.84;5021040;28;20049;-44
2021/12/02 01:19:20;;;;;;;1.07;0.40;;;6.60;83.70;;;6.53;64.22;95954.03;5029191;28;20249;-43
2021/12/02 01:21:49;;;;;;;2.20;0.97;;;6.60;83.80;;;6.51;64.15;95956.84;5028088;28;20053;-43
2021/12/02 01:24:20;;;;;;;3.23;0.87;;;6.50;83.90;;;6.56;64.23;95959.78;5028862;28;20261;-48
2021/12/02 01:26:53;;;;;;;1.30;0.83;;;6.50;84.10;;;6.55;64.36;95954.69;5029652;28;20536;-44
2021/12/02 01:29:24;;;;;;;3.08;0.88;;;6.50;84.20;;;6.50;63.82;95963.97;5027324;28;20057;-44
2021/12/02 01:31:59;;;;;;;5.00;1.07;;;6.50;84.50;;;6.46;64.15;95969.78;5019591;28;20072;-46
2021/12/02 01:34:27;;;;;;;3.77;1.50;;;6.50;84.70;;;6.43;64.41;95978.06;5028181;28;20057;-45
2021/12/02 01:36:56;;;;;;;2.40;0.80;;;6.50;85.10;;;6.43;65.01;95986.00;5028038;28;20053;-44
2021/12/02 01:39:24;;;;;;;1.67;0.80;;;6.40;85.20;;;6.37;64.92;95990.16;5029862;28;20045;-45
2021/12/02 01:41:57;;;;;;;2.70;1.10;;;6.40;85.50;;;6.40;65.02;95981.88;5027699;28;20370;-45
2021/12/02 01:44:28;;;;;;;4.00;0.90;;;6.40;85.70;;;6.37;65.54;95981.41;5027892;28;20041;-44
2021/12/02 01:47:00;;;;;;;2.80;1.00;;;6.40;85.80;;;6.40;65.30;95989.00;5029210;28;20512;-45
2021/12/02 01:49:34;;;;;;;1.67;0.70;;;6.40;86.10;;;6.43;65.01;95983.34;5028417;28;20057;-45
2021/12/02 01:52:02;;;;;;;2.63;0.80;;;6.50;86.30;;;6.42;65.67;95987.00;5028847;28;20053;-45
2021/12/02 01:54:30;;;;;;;4.07;1.13;;;6.50;86.30;;;6.42;65.41;95984.38;5028373;28;20057;-44
2021/12/02 01:57:09;;;;;;;2.90;1.57;;;6.50;86.40;;;6.40;65.53;95983.72;5028502;28;20051;-46
2021/12/02 01:59:38;;;;;;;2.47;0.80;;;6.50;86.40;;;6.46;65.33;95983.00;5019224;28;20221;-43
2021/12/02 02:02:10;;;;;;;2.07;0.80;;;6.50;86.20;;;6.43;64.79;95984.16;5028798;28;20068;-44
2021/12/02 02:04:39;;;;;;;2.23;0.97;;;6.50;86.20;;;6.45;64.78;95982.16;5028518;28;20056;-43
2021/12/02 02:07:15;;;;;;;3.07;0.97;;;6.50;86.30;;;6.46;65.07;95998.88;5027721;28;20056;-44
2021/12/02 02:09:44;;;;;;;1.43;1.07;;;6.50;86.00;;;6.45;65.04;95987.44;5028441;28;20049;-43
2021/12/02 02:12:13;;;;;;;2.43;0.90;;;6.50;85.60;;;6.47;65.16;95984.63;5028191;28;20057;-43
2021/12/02 02:14:43;;;;;;;3.30;0.90;;;6.50;85.60;;;6.51;64.95;95988.56;5027416;28;20057;-45
2021/12/02 02:19:42;;;;;;;1.93;0.67;;;6.50;85.10;;;6.44;64.21;95982.38;5027726;28;20355;-48
2021/12/02 02:22:11;;;;;;;1.17;0.70;;;6.50;85.00;;;6.49;64.51;95986.13;5027764;28;20064;-45
2021/12/02 02:24:39;;;;;;;0.97;0.60;;;6.50;85.10;;;6.48;64.44;95986.28;5026742;28;20050;-43
2021/12/02 02:27:07;;;;;;;1.53;0.97;;;6.40;84.60;;;6.45;64.49;95984.81;5023211;28;20064;-43
2021/12/02 02:29:35;;;;;;;2.10;0.73;;;6.40;84.70;;;6.43;64.48;95986.00;5028235;28;20048;-46
2021/12/02 02:32:03;;;;;;;2.20;0.97;;;6.40;84.50;;;6.39;64.51;95985.50;5028460;28;20053;-46
2021/12/02 02:34:31;;;;;;;1.30;0.80;;;6.40;84.70;;;6.37;64.39;95990.16;5025932;28;20064;-43
2021/12/02 02:37:03;;;;;;;2.30;1.10;;;6.40;84.60;;;6.31;64.77;95982.94;5027241;28;20061;-44
2021/12/02 02:39:33;;;;;;;0.70;0.70;;;6.30;84.70;;;6.28;64.21;95977.97;5027423;28;20052;-44
2021/12/02 02:42:05;;;;;;;3.03;1.00;;;6.30;84.70;;;6.27;64.30;95986.94;5027825;28;20215;-44
2021/12/02 02:44:34;;;;;;;3.27;1.00;;;6.30;84.60;;;6.26;64.20;95977.34;5027679;28;20083;-44
2021/12/02 02:47:03;;;;;;;3.40;0.73;;;6.30;84.90;;;6.23;64.80;95977.69;5027276;28;20479;-44
2021/12/02 02:49:30;;;;;;;1.20;0.70;;;6.30;84.50;;;6.19;64.16;95979.06;5028242;28;20067;-44
2021/12/02 02:51:58;;;;;;;1.00;0.50;;;6.30;84.60;;;6.11;64.83;95979.94;5027729;28;20061;-44
2021/12/02 02:54:27;;;;;;;1.90;1.13;;;6.20;84.20;;;6.11;64.63;95974.63;5027144;28;20061;-45
2021/12/02 02:57:07;;;;;;;0.60;0.50;;;6.10;84.70;;;6.08;65.06;95975.78;5020646;28;20067;-46
2021/12/02 03:00:01;;;;;;;2.13;0.87;;;6.10;85.10;;;5.95;64.81;95977.31;5026933;28;20068;-42
2021/12/02 03:05:33;;;;;;;2.17;1.50;;;5.90;85.30;;;5.91;64.84;95969.75;5027214;28;20077;-45
2021/12/02 03:08:12;;;;;;;3.80;1.93;;;5.90;85.80;;;5.88;64.75;95964.81;5053006;28;20053;-46
2021/12/02 03:13:35;;;;;;;1.73;0.60;;;5.80;85.60;;;5.84;65.42;95965.34;5041564;28;20263;-44
2021/12/02 03:18:52;;;;;;;1.00;0.60;;;5.90;85.70;;;5.85;65.49;95970.44;5046303;28;20529;-44
2021/12/02 03:21:22;;;;;;;0.80;0.80;;;5.90;85.70;;;5.85;65.03;95966.97;5048678;28;20727;-45
2021/12/02 03:24:00;;;;;;;0.43;0.43;;;5.80;85.90;;;5.84;64.71;95968.78;5046861;28;20080;-44
2021/12/02 03:26:29;;;;;;;1.20;0.67;;;5.80;86.00;;;5.79;65.45;95963.19;5047829;28;20052;-43
2021/12/02 03:28:58;;;;;;;1.57;0.70;;;5.80;85.90;;;5.75;64.75;95959.25;5046915;28;20044;-44
2021/12/02 03:31:26;;;;;;;0.73;0.70;;;5.70;86.20;;;5.76;65.10;95960.06;5047346;28;20049;-43
2021/12/02 03:33:53;;;;;;;1.00;0.60;;;5.70;86.40;;;5.78;64.91;95968.66;5046108;28;20324;-43
2021/12/02 03:36:21;;;;;;;0.80;0.60;;;5.70;86.50;;;5.77;64.83;95959.91;5046524;28;20055;-40
2021/12/02 03:38:50;;;;;;;2.00;1.20;;;5.70;86.50;;;5.77;65.49;95967.00;5045684;28;20053;-40
2021/12/02 03:41:18;;;;;;;1.90;0.97;;;5.70;86.40;;;5.80;64.68;95967.50;5047432;28;20240;-40
2021/12/02 03:43:49;;;;;;;1.40;0.70;;;5.70;86.60;;;5.77;65.34;95967.84;5039290;28;20059;-40
2021/12/02 03:46:21;;;;;;;1.33;0.60;;;5.60;86.50;;;5.82;65.25;95972.63;5046866;28;20052;-39
2021/12/02 03:48:51;;;;;;;2.30;0.70;;;5.70;87.20;;;5.86;65.54;95976.56;5044904;28;20052;-40
2021/12/02 03:51:20;;;;;;;1.73;0.80;;;5.70;87.20;;;5.95;65.31;95970.25;5047408;28;20056;-40
2021/12/02 03:53:50;;;;;;;1.33;0.90;;;5.80;86.90;;;5.98;65.43;95969.09;5044815;28;20374;-40
2021/12/02 03:56:18;;;;;;;1.33;0.80;;;5.90;86.80;;;5.88;65.56;95962.16;5046960;28;20053;-40
2021/12/02 03:58:48;;;;;;;1.87;1.10;;;5.80;86.80;;;5.91;65.42;95972.41;5045682;28;20401;-40
2021/12/02 04:01:17;;;;;;;2.07;1.20;;;5.90;87.00;;;5.88;65.23;95969.28;5047632;28;20049;-40
2021/12/02 04:03:46;;;;;;;3.27;1.00;;;5.80;87.00;;;5.85;65.37;95967.78;5046562;28;20055;-40
2021/12/02 04:06:15;;;;;;;5.47;2.10;;;5.80;87.50;;;5.83;65.28;95968.97;5046442;28;20247;-40
2021/12/02 04:08:53;;;;;;;3.33;1.23;;;5.70;87.70;;;5.91;65.77;95966.28;5047313;28;20055;-40
2021/12/02 04:11:29;;;;;;;4.03;1.20;;;5.80;87.70;;;5.91;65.91;95969.75;5047790;28;20057;-40
2021/12/02 04:16:50;;;;;;;4.53;1.30;;;5.90;87.40;;;5.97;65.34;95964.78;5046983;28;20060;-43
2021/12/02 04:19:20;;;;;;;1.73;1.20;;;5.90;87.20;;;5.97;64.95;95962.16;5046028;28;20293;-47
2021/12/02 04:21:48;;;;;;;1.70;1.57;;;6.00;87.00;;;5.95;65.06;95958.84;5045765;28;20060;-46
2021/12/02 04:24:16;;;;;;;3.37;1.17;;;5.90;86.90;;;5.93;65.64;95956.34;5045625;28;20059;-43
2021/12/02 04:26:45;;;;;;;5.73;2.03;;;5.90;87.10;;;5.95;65.32;95950.91;5045820;28;20056;-46
2021/12/02 04:29:13;;;;;;;1.67;1.00;;;5.90;87.30;;;5.97;64.97;95957.72;5047355;28;20045;-44
2021/12/02 04:31:47;;;;;;;2.20;1.13;;;5.90;87.10;;;5.97;65.35;95948.94;5048208;28;20255;-45
2021/12/02 04:34:16;;;;;;;2.47;1.00;;;5.80;87.20;;;5.93;65.16;95951.06;5049075;28;20259;-44
2021/12/02 04:36:45;;;;;;;3.57;1.10;;;5.70;87.60;;;5.86;65.50;95955.44;5049404;28;20053;-40
2021/12/02 04:39:13;;;;;;;1.10;0.77;;;5.70;87.50;;;5.83;65.53;95963.69;5048941;28;20044;-40
2021/12/02 04:41:42;;;;;;;0.97;0.80;;;5.60;87.60;;;5.79;65.76;95965.03;5049521;28;20061;-45
2021/12/02 04:44:10;;;;;;;1.73;0.80;;;5.60;87.70;;;5.69;65.28;95959.94;5048639;28;20056;-43
2021/12/02 04:46:38;;;;;;;2.23;0.80;;;5.60;87.50;;;5.67;65.08;95960.13;5041632;28;20071;-45
2021/12/02 04:49:05;;;;;;;1.90;0.80;;;5.60;87.50;;;5.65;66.08;95961.28;5049488;28;20078;-47
2021/12/02 04:51:34;;;;;;;1.43;0.63;;;5.60;87.50;;;5.55;66.37;95953.59;5049638;28;20053;-40
2021/12/02 04:54:02;;;;;;;1.23;0.87;;;5.60;87.50;;;5.61;65.66;95957.34;5049729;28;20072;-40
2021/12/02 04:56:29;;;;;;;2.03;1.10;;;5.60;87.70;;;5.59;65.53;95960.16;5051650;28;20053;-44
2021/12/02 04:58:57;;;;;;;4.30;0.97;;;5.60;87.60;;;5.64;66.16;95955.19;5048212;28;20049;-45
2021/12/02 05:01:25;;;;;;;1.63;1.13;;;5.60;87.70;;;5.62;65.60;95954.56;5049205;28;20037;-45
2021/12/02 05:03:53;;;;;;;1.83;1.10;;;5.60;87.70;;;5.61;65.88;95949.44;5049009;28;20043;-45
2021/12/02 05:06:21;;;;;;;2.47;1.10;;;5.60;87.60;;;5.62;65.75;95951.91;5048849;28;20351;-44
2021/12/02 05:08:49;;;;;;;2.93;0.80;;;5.60;87.90;;;5.60;65.88;95956.50;5049135;28;20045;-43
2021/12/02 05:11:17;;;;;;;3.50;0.93;;;5.60;87.90;;;5.58;65.96;95958.50;5051029;28;20045;-47
2021/12/02 05:13:45;;;;;;;3.33;1.17;;;5.60;88.00;;;5.58;65.78;95960.31;5048844;28;20053;-43
2021/12/02 05:16:13;;;;;;;3.37;1.20;;;5.50;88.00;;;5.56;66.12;95944.66;5048562;28;20052;-44
2021/12/02 05:18:41;;;;;;;4.40;1.27;;;5.50;88.00;;;5.53;65.60;95959.03;5048408;28;20361;-44
2021/12/02 05:21:09;;;;;;;2.13;1.03;;;5.50;88.00;;;5.53;66.17;95953.75;5048971;28;20071;-44
2021/12/02 05:23:37;;;;;;;2.73;0.83;;;5.50;88.10;;;5.46;66.25;95958.06;5049005;28;20052;-45
2021/12/02 05:26:05;;;;;;;4.57;1.00;;;5.40;88.10;;;5.49;66.36;95952.44;5049891;28;20048;-43
2021/12/02 05:28:33;;;;;;;2.23;0.83;;;5.50;88.40;;;5.52;66.60;95957.41;5048295;28;20266;-44
2021/12/02 05:31:00;;;;;;;3.63;1.03;;;5.50;88.20;;;5.51;66.50;95947.00;5049475;28;20236;-45
2021/12/02 05:33:28;;;;;;;0.80;0.77;;;5.60;88.20;;;5.49;66.35;95947.16;5048229;28;20258;-47
2021/12/02 05:35:56;;;;;;;1.17;0.87;;;5.50;88.20;;;5.45;66.60;95942.41;5048470;28;20056;-44
2021/12/02 05:38:24;;;;;;;1.90;1.00;;;5.50;88.30;;;5.42;66.47;95953.28;5048881;28;20079;-44
2021/12/02 05:40:52;;;;;;;1.70;0.90;;;5.50;88.40;;;5.45;67.00;95950.31;5048779;28;20059;-44
2021/12/02 05:43:20;;;;;;;2.50;1.60;;;5.50;88.60;;;5.40;67.26;95947.38;5048110;28;20063;-45
2021/12/02 05:45:49;;;;;;;1.83;0.87;;;5.50;88.60;;;5.42;66.61;95946.19;5049029;28;20357;-43
2021/12/02 05:48:17;;;;;;;3.20;1.13;;;5.50;88.90;;;5.43;66.85;95953.13;5047691;28;20049;-45
2021/12/02 05:50:44;;;;;;;1.93;0.60;;;5.50;89.00;;;5.42;66.25;95942.75;5048051;28;20105;-43
2021/12/02 05:53:12;;;;;;;3.90;0.87;;;5.50;89.00;;;5.49;67.25;95939.25;5046886;28;20057;-44
2021/12/02 05:55:40;;;;;;;4.17;1.40;;;5.60;89.30;;;5.50;67.28;95938.25;5048062;28;20045;-43
2021/12/02 05:58:11;;;;;;;1.03;0.67;;;5.50;89.30;;;5.48;67.03;95932.31;5048400;28;20067;-44
2021/12/02 06:00:41;;;;;;;2.27;1.10;;;5.60;89.50;;;5.51;67.11;95925.88;5049385;28;20036;-44
2021/12/02 06:03:09;;;;;;;2.47;1.30;;;5.50;89.50;;;5.50;66.95;95937.41;5048589;28;20041;-44
2021/12/02 06:05:38;;;;;;;4.20;1.30;;;5.50;89.50;;;5.45;66.44;95931.84;5047906;28;20041;-45
2021/12/02 06:08:06;;;;;;;4.13;1.53;;;5.50;89.80;;;5.48;66.86;95927.03;5048026;28;20359;-44
2021/12/02 06:10:34;;;;;;;3.60;1.40;;;5.50;90.00;;;5.44;67.70;95920.44;5049415;28;20052;-44
2021/12/02 06:13:01;;;;;;;2.17;1.30;;;5.40;90.30;;;5.38;67.67;95936.16;5048262;28;20045;-44
2021/12/02 06:15:29;;;;;;;3.07;1.70;;;5.50;90.40;;;5.40;67.23;95921.78;5047888;28;20052;-44
2021/12/02 06:17:57;;;;;;;2.87;1.37;;;5.50;90.40;;;5.40;67.56;95921.78;5048011;28;20242;-45
2021/12/02 06:20:25;;;;;;;4.60;1.87;;;5.50;90.30;;;5.40;67.14;95920.97;5048159;28;20047;-44
2021/12/02 06:22:53;;;;;;;6.33;2.10;;;5.40;90.50;;;5.39;67.51;95909.59;5049518;28;20045;-43
2021/12/02 06:27:53;;;;;;;6.73;2.63;;;5.40;90.20;;;5.44;66.30;95919.63;5047210;28;20049;-46
2021/12/02 06:30:24;;;;;;;2.60;1.30;;;5.40;90.00;;;5.44;66.68;95924.91;5048976;28;20247;-44
2021/12/02 06:32:52;;;;;;;2.97;2.00;;;5.40;90.00;;;5.41;66.84;95938.44;5046217;28;20375;-44
2021/12/02 06:35:21;;;;;;;4.17;1.80;;;5.40;90.00;;;5.42;66.20;95927.72;5045564;28;20048;-44
2021/12/02 06:37:49;;;;;;;4.80;1.90;;;5.40;90.00;;;5.42;67.04;95934.81;5048148;28;20045;-43
2021/12/02 06:40:17;;;;;;;2.83;1.50;;;5.40;89.70;;;5.40;66.76;95937.63;5048056;28;20033;-44
2021/12/02 06:42:46;;;;;;;6.87;2.53;;;5.40;89.70;;;5.41;66.91;95935.78;5046402;28;20346;-44
2021/12/02 06:45:14;;;;;;;4.43;3.13;;;5.30;90.00;;;5.42;66.21;95921.63;5045430;28;20078;-44
2021/12/02 06:47:47;;;;;;;10.13;8.03;;;5.30;90.10;;;5.44;66.30;95924.91;5046694;28;20071;-46
2021/12/02 06:50:19;;;;;;;5.47;4.57;;;5.30;90.20;;;5.44;66.71;95930.19;5046768;28;20045;-45
2021/12/02 06:52:49;;;;;;;5.93;3.77;;;5.30;90.70;;;5.47;66.45;95933.31;5045455;28;20049;-43
2021/12/02 06:55:18;;;;;;;6.73;4.47;;;5.30;90.70;;;5.50;66.93;95932.13;5047386;28;20045;-45
2021/12/02 06:57:47;;;;;;;5.73;2.70;;;5.40;90.70;;;5.55;66.40;95934.28;5047098;28;20239;-48
2021/12/02 07:00:18;;;;;;;16.53;7.77;;;5.40;90.50;;;5.54;66.65;95936.09;5047819;28;20363;-47
2021/12/02 07:02:47;;;;;;;4.40;2.30;;;5.40;90.50;;;5.55;66.57;95944.84;5029819;28;20428;-46
2021/12/02 07:05:17;;;;;;;4.73;2.70;;;5.40;90.80;;;5.58;66.38;95949.75;5046927;28;20053;-46
2021/12/02 07:07:45;;;;;;;5.20;2.67;;;5.40;90.70;;;5.59;66.64;95946.97;5047480;28;20057;-47
2021/12/02 07:10:25;;;;;;;3.97;2.50;;;5.40;90.70;;;5.61;66.88;95946.78;5046970;28;20068;-46
2021/12/02 07:12:57;;;;;;;4.43;2.50;;;5.40;90.70;;;5.63;66.40;95950.09;5047226;28;20059;-44
2021/12/02 07:15:44;;;;;;;4.27;2.80;;;5.40;90.80;;;5.64;66.77;95951.72;5047196;28;20271;-44
2021/12/02 07:18:13;;;;;;;6.13;4.17;;;5.40;91.20;;;5.64;66.37;95959.63;5045633;28;20071;-45
2021/12/02 07:20:44;;;;;;;1.97;1.50;;;5.40;91.00;;;5.64;66.66;95963.13;5047251;28;20045;-40
2021/12/02 07:23:18;;;;;;;5.47;2.37;;;5.50;90.80;;;5.66;66.96;95966.41;5047511;28;20048;-40
2021/12/02 07:25:48;;;;;;;2.60;1.40;;;5.40;90.40;;;5.69;66.53;95963.41;5047010;28;20087;-46
2021/12/02 07:28:17;;;;;;;2.43;1.60;;;5.40;90.50;;;5.69;66.87;95971.31;5046791;28;20053;-45
2021/12/02 07:30:53;;;;;;;3.17;1.33;;;5.40;90.60;;;5.69;66.66;95962.59;5047651;28;20049;-46
2021/12/02 07:33:22;;;;;;;2.90;1.17;;;5.40;90.80;;;5.70;66.19;95973.00;5044429;28;20041;-49
2021/12/02 07:35:50;;;;;;;1.50;1.30;;;5.40;91.10;;;5.74;66.95;95968.19;5047443;28;20053;-47
2021/12/02 07:38:19;;;;;;;1.97;1.60;;;5.50;91.20;;;5.75;66.16;95975.09;5046690;28;20365;-48
2021/12/02 07:40:47;;;;;;;2.50;1.40;;;5.40;91.00;;;5.73;66.43;95972.63;5039068;28;20049;-40
2021/12/02 07:43:14;;;;;;;1.77;1.40;;;5.40;91.10;;;5.74;66.33;95976.13;5046606;28;20053;-40
2021/12/02 07:45:43;;;;;;;2.57;1.20;;;5.40;91.30;;;5.71;66.84;95973.81;5046968;28;20045;-40
2021/12/02 07:48:14;;;;;;;5.77;2.00;;;5.40;91.50;;;5.71;66.91;95979.09;5045207;28;20236;-40
2021/12/02 07:50:42;;;;;;;9.13;4.83;;;5.40;91.90;;;5.69;66.97;95975.78;5046937;28;20051;-41
2021/12/02 07:53:10;;;;;;;8.57;4.33;;;5.40;91.60;;;5.73;66.93;95974.44;5045955;28;20899;-40
2021/12/02 07:55:40;;;;;;;11.90;5.13;;;5.50;91.70;;;5.70;66.30;95975.63;5046522;28;20044;-40
2021/12/02 07:58:10;;;;;;;14.63;6.47;;;5.40;91.80;;;5.70;66.97;95985.38;5045699;28;20262;-41
2021/12/02 08:00:39;;;;;;;3.17;1.57;;;5.40;92.10;;;5.71;66.38;95984.38;5047374;28;20067;-41
2021/12/02 08:03:10;;;;;;;2.17;1.47;;;5.40;91.60;;;5.72;66.54;95986.03;5045788;28;20045;-40
2021/12/02 08:05:40;;;;;;;1.70;1.20;;;5.50;91.60;;;5.73;66.74;95993.75;5050911;28;20063;-40
2021/12/02 08:08:09;;;;;;;1.10;0.80;;;5.60;91.50;;;5.77;66.44;95988.97;5045963;28;20063;-40
2021/12/02 08:10:37;;;;;;;3.13;0.90;;;5.60;91.00;;;5.83;66.73;95988.25;5049887;28;20045;-40
2021/12/02 08:13:06;;;;;;;3.03;1.60;;;5.70;90.90;;;5.85;67.10;95990.75;5049353;28;20071;-40
2021/12/02 08:15:34;;;;;;;1.47;1.00;;;5.70;90.40;;;5.87;66.37;95994.03;5050672;28;20059;-40
2021/12/02 08:18:02;;;;;;;4.17;1.70;;;5.80;90.40;;;5.91;66.09;95987.41;5050217;28;20067;-40
2021/12/02 08:20:31;;;;;;;4.53;2.30;;;5.80;89.80;;;5.98;66.86;95990.22;5050790;28;20060;-40
2021/12/02 08:22:59;;;;;;;4.90;2.00;;;5.90;90.00;;;5.98;66.94;95992.88;5050105;28;20256;-40
2021/12/02 08:25:30;;;;;;;2.50;1.30;;;5.90;89.50;;;5.98;65.91;95992.88;5049361;28;20220;-40
2021/12/02 08:28:00;;;;;;;2.47;1.40;;;6.00;89.20;;;5.98;66.05;95991.03;5049600;28;20053;-40
2021/12/02 08:30:32;;;;;;;2.23;1.17;;;6.00;89.20;;;5.98;66.48;95987.59;5051249;28;20059;-40
2021/12/02 08:33:02;;;;;;;2.67;1.30;;;6.00;89.00;;;5.96;66.35;95974.53;5049772;28;20057;-40
2021/12/02 08:35:30;;;;;;;2.30;1.10;;;6.00;88.80;;;6.01;66.47;95985.44;5050344;28;20051;-40
2021/12/02 08:38:05;;;;;;;6.33;2.00;;;6.00;89.00;;;6.02;66.18;95983.59;5049700;28;20053;-41
2021/12/02 08:40:35;;;;;;;1.77;1.30;;;6.00;89.00;;;6.00;65.90;95989.03;5049965;28;20057;-40
2021/12/02 08:43:08;;;;;;;3.67;1.10;;;5.90;88.90;;;6.04;66.41;95982.41;5050095;28;20047;-40
2021/12/02 08:45:39;;;;;;;2.38;1.30;;;6.10;89.30;;;6.09;66.36;95982.72;5048260;28;20048;-40
2021/12/02 08:48:09;;;;;;;1.70;1.20;;;6.00;88.90;;;6.05;65.85;95985.91;5049206;28;20242;-40
2021/12/02 08:50:38;;;;;;;1.70;1.20;;;6.00;88.40;;;6.02;66.54;95987.06;5049956;28;20056;-40
2021/12/02 08:53:08;;;;;;;2.10;1.30;;;6.00;88.70;;;6.03;65.69;95985.22;5048460;28;20056;-40
2021/12/02 08:55:38;;;;;;;2.23;1.50;;;6.00;88.50;;;6.02;65.54;95975.69;5048020;28;20688;-48
2021/12/02 08:58:09;;;;;;;2.37;1.47;;;6.00;88.40;;;5.97;66.01;95983.28;5049351;28;20277;-45
2021/12/02 09:00:40;;;;;;;2.77;1.33;;;6.00;88.00;;;5.98;66.48;95985.75;5039587;28;20232;-47
2021/12/02 09:03:13;;;;;;;3.53;1.87;;;6.00;88.80;;;5.95;66.27;95983.44;5036698;28;20255;-45
2021/12/02 09:05:43;;;;;;;3.33;1.90;;;5.90;89.10;;;5.90;66.32;95988.41;5039547;28;20059;-47
2021/12/02 09:08:12;;;;;;;2.50;1.60;;;5.90;89.40;;;5.79;66.95;95986.16;5037366;28;20060;-47
2021/12/02 09:10:40;;;;;;;2.63;2.10;;;5.80;90.10;;;5.81;67.10;95987.63;5039736;28;20049;-47
2021/12/02 09:13:08;;;;;;;2.57;1.80;;;5.80;91.10;;;5.71;67.53;95989.66;5036618;28;20569;-44
2021/12/02 09:15:38;;;;;;;3.23;2.20;;;5.70;91.80;;;5.77;67.66;95988.13;5039996;28;20361;-47
2021/12/02 09:18:06;;;;;;;3.23;1.67;;;5.70;92.20;;;5.79;67.21;96002.00;5036498;28;20053;-44
2021/12/02 09:20:34;;;;;;;4.57;2.57;;;5.80;91.80;;;5.55;68.36;96002.91;5040623;28;20057;-46
2021/12/02 09:23:02;;;;;;;3.37;1.70;;;5.50;93.20;;;5.48;67.96;96011.50;5039741;28;20075;-44
2021/12/02 09:25:30;;;;;;;4.00;1.87;;;5.50;93.50;;;5.29;68.91;96014.50;5033324;28;20354;-47
2021/12/02 09:27:58;;;;;;;4.00;2.37;;;5.30;95.20;;;5.17;69.92;96018.50;5047437;28;20063;-46
2021/12/02 09:30:26;;;;;;;3.67;1.70;;;5.10;98.60;;;5.07;69.65;96027.41;5049383;28;20357;-44
2021/12/02 09:32:54;;;;;;;2.30;1.73;;;5.00;99.50;;;4.96;70.07;96037.47;5048666;28;20254;-45
2021/12/02 09:35:23;;;;;;;3.77;1.83;;;4.80;99.80;;;4.79;69.88;96041.91;5049372;28;20053;-45
2021/12/02 09:37:51;;;;;;;1.67;1.30;;;4.70;99.90;;;4.84;69.47;96050.16;5048778;28;20064;-45
2021/12/02 09:40:20;;;;;;;1.43;1.10;;;4.70;99.90;;;4.58;71.35;96059.03;5049046;28;20067;-42
2021/12/02 09:42:48;;;;;;;2.40;1.90;;;4.50;99.90;;;4.39;71.42;96048.78;5048210;28;20044;-43
2021/12/02 09:45:16;;;;;;;1.50;1.00;;;4.30;99.90;;;4.34;70.93;96051.91;5048447;28;20266;-43
2021/12/02 09:47:48;;;;;;;1.23;0.97;;;4.20;99.90;;;4.31;70.98;96055.69;5048445;28;20060;-43
2021/12/02 09:50:26;;;;;;;1.10;0.93;;;4.20;99.90;;;4.12;71.52;96053.31;5048805;28;20057;-45
2021/12/02 09:52:56;;;;;;;1.93;0.90;;;4.00;99.90;;;4.10;70.94;96058.75;5048176;28;20554;-44
2021/12/02 09:58:12;;;;;;;2.27;1.10;;;3.90;99.90;;;4.03;71.76;96062.19;5047262;28;20246;-48
2021/12/02 10:00:45;;;;;;;1.70;1.07;;;3.90;99.90;;;4.08;71.85;96070.44;5040350;28;20059;-45
2021/12/02 10:03:35;;;;;;;1.38;0.80;;;3.90;99.90;;;4.02;71.75;96056.09;5049195;28;20523;-45
2021/12/02 10:06:18;;;;;;;1.97;1.03;;;3.90;99.90;;;3.97;71.56;96054.91;5043172;28;20057;-44
2021/12/02 10:09:08;;;;;;;1.90;0.95;;;3.80;99.90;;;3.78;72.16;96059.47;5047762;28;20061;-47
2021/12/02 10:11:53;;;;;;;2.80;1.20;;;3.70;99.90;;;3.88;72.21;96057.53;5048004;28;20055;-44
2021/12/02 10:14:33;;;;;;;2.70;1.30;;;3.70;99.90;;;3.97;72.04;96063.63;5047863;28;20060;-43
2021/12/02 10:17:31;;;;;;;2.30;1.40;;;3.80;99.90;;;4.13;71.31;96053.19;5047722;28;20064;-44
2021/12/02 10:23:15;;;;;;;4.43;1.70;;;4.20;99.90;;;4.37;71.42;96050.78;5038825;28;20041;-43
2021/12/02 10:25:58;;;;;;;3.85;2.08;;;4.30;99.90;;;4.43;71.14;96056.22;5039929;28;20196;-46
2021/12/02 10:28:33;;;;;;;4.00;1.30;;;4.30;99.90;;;4.45;70.84;96053.41;5038852;28;20045;-44
2021/12/02 10:31:05;;;;;;;3.07;1.70;;;4.40;99.90;;;4.52;71.40;96051.78;5038639;28;20068;-46
2021/12/02 10:33:40;;;;;;;2.53;1.97;;;4.40;99.90;;;4.57;70.75;96053.94;5035570;28;20056;-45
2021/12/02 10:36:27;;;;;;;;;;;4.50;99.90;;;4.56;71.08;96054.94;5038414;28;20102;-43
2021/12/02 10:38:59;;;;;;;1.90;1.37;;;4.50;99.90;;;4.39;71.93;96057.53;5037963;28;20207;-45
2021/12/02 10:41:30;;;;;;;2.03;1.40;;;4.30;99.90;;;4.36;71.37;96067.56;5038631;28;20287;-43
2021/12/02 10:44:12;;;;;;;2.17;1.60;;;4.30;99.90;;;4.41;71.11;96060.00;5038319;28;20046;-46
2021/12/02 10:47:01;;;;;;;1.95;1.45;;;4.20;99.90;;;4.36;71.00;96068.38;5037620;28;20049;-44
2021/12/02 10:49:43;;;;;;;1.80;1.50;;;4.20;99.90;;;4.35;70.92;96066.72;5038238;28;20053;-45
2021/12/02 10:52:26;;;;;;;2.57;1.83;;;4.10;99.90;;;4.29;71.52;96065.56;5038864;28;20048;-44
2021/12/02 10:55:13;;;;;;;1.80;1.38;;;4.10;99.90;;;4.21;71.68;96064.72;5047837;28;20049;-45
2021/12/02 10:57:54;;;;;;;2.23;1.57;;;4.10;99.90;;;4.18;71.81;96062.41;5028911;28;20059;-44
2021/12/02 11:00:26;;;;;;;2.27;1.17;;;4.00;99.90;;;4.07;71.86;96067.00;5036204;28;20048;-45
2021/12/02 11:02:58;;;;;;;2.50;1.30;;;3.90;99.90;;;4.05;72.12;96062.84;5036785;28;20049;-45
2021/12/02 11:05:32;;;;;;;2.53;1.23;;;3.90;99.90;;;4.06;71.67;96061.88;5036484;28;20037;-47
2021/12/02 11:08:08;;;;;;;1.80;1.30;;;3.90;99.90;;;4.17;71.50;96063.38;5038949;28;20049;-44
2021/12/02 11:10:38;;;;;;;2.80;1.90;;;4.00;99.90;;;4.07;71.64;96061.72;5030022;28;20169;-46
2021/12/02 11:13:09;;;;;;;2.50;1.77;;;4.00;99.90;;;4.21;71.56;96052.38;5029522;28;20370;-44